Time;durP1;ratioP1;P1;durP2;ratioP2;P2;SDS_P1;SDS_P2;PMS_P1;PMS_P2;Temp;Humidity;BMP_temperature;BMP_pressure;BME280_temperature;BME280_humidity;BME280_pressure;Samples;Min_cycle;Max_cycle;Signal;HPM_P1;HPM_P2
2023/09/06 00:01:07;;;;;;;;;;;;;;;-140.72;100.00;52378.69;5071753;28;19924;-67
2023/09/06 00:03:55;;;;;;;;;;;;;;;-140.72;100.00;52413.19;5071657;28;19981;-68
2023/09/06 00:06:21;;;;;;;;;;;;;;;-140.72;100.00;52403.03;5070385;28;20008;-68
2023/09/06 00:08:46;;;;;;;;;;;;;;;-140.72;100.00;52421.28;5070273;28;20007;-68
2023/09/06 00:11:12;;;;;;;;;;;;;;;-140.72;100.00;52433.47;5074100;28;19925;-69
2023/09/06 00:13:37;;;;;;;;;;;;;;;-140.72;100.00;52437.53;5067204;28;19932;-68
2023/09/06 00:16:03;;;;;;;;;;;;;;;-140.72;100.00;52398.97;5072513;28;19924;-69
2023/09/06 00:18:28;;;;;;;;;;;;;;;-140.72;100.00;52421.28;5074338;28;20995;-69
2023/09/06 00:20:54;;;;;;;;;;;;;;;-140.72;100.00;52423.31;5066626;28;19944;-68
2023/09/06 00:23:20;;;;;;;;;;;;;;;-140.72;100.00;52419.28;5073167;28;20007;-68
2023/09/06 00:25:45;;;;;;;;;;;;;;;-140.72;100.00;52419.28;5074746;28;20011;-68
2023/09/06 00:28:12;;;;;;;;;;;;;;;-140.72;100.00;52394.91;5070871;28;20415;-68
2023/09/06 00:30:37;;;;;;;;;;;;;;;-140.72;100.00;52411.16;5068892;28;20020;-68
2023/09/06 00:33:05;;;;;;;;;;;;;;;-140.72;100.00;52427.38;5081596;28;19999;-69
2023/09/06 00:35:32;;;;;;;;;;;;;;;-140.72;100.00;52403.03;5077427;28;19920;-68
2023/09/06 00:38:04;;;;;;;;;;;;;;;-140.72;100.00;52419.28;5071558;28;19925;-69
2023/09/06 00:40:29;;;;;;;;;;;;;;;-140.72;100.00;52411.16;5068436;28;19955;-68
2023/09/06 00:42:59;;;;;;;;;;;;;;;-140.72;100.00;52407.09;5065444;28;19967;-69
2023/09/06 00:45:26;;;;;;;;;;;;;;;-140.72;100.00;52409.13;5071074;28;19929;-69
2023/09/06 00:47:52;;;;;;;;;;;;;;;-140.72;100.00;52409.13;5068503;28;19920;-68
2023/09/06 00:50:18;;;;;;;;;;;;;;;-140.72;100.00;52415.22;5067598;28;19960;-69
2023/09/06 00:52:44;;;;;;;;;;;;;;;-140.72;100.00;52372.59;5070098;28;19967;-69
2023/09/06 00:55:10;;;;;;;;;;;;;;;-140.72;100.00;52451.72;5065214;28;20412;-70
2023/09/06 00:57:36;;;;;;;;;;;;;;;-140.72;100.00;52425.34;5070588;28;20051;-68
2023/09/06 01:00:04;;;;;;;;;;;;;;;-140.72;100.00;52413.19;5069975;28;20015;-68
2023/09/06 01:02:29;;;;;;;;;;;;;;;-140.72;100.00;52411.16;5071919;28;19951;-68
2023/09/06 01:04:54;;;;;;;;;;;;;;;-140.72;100.00;52427.38;5069054;28;19982;-69
2023/09/06 01:07:23;;;;;;;;;;;;;;;-140.72;100.00;52431.44;5068351;28;19920;-69
2023/09/06 01:09:49;;;;;;;;;;;;;;;-140.72;100.00;52437.53;5068458;28;19928;-68
2023/09/06 01:12:15;;;;;;;;;;;;;;;-140.72;100.00;52443.63;5069263;28;19920;-69
2023/09/06 01:14:41;;;;;;;;;;;;;;;-140.72;100.00;52439.56;5069776;28;19931;-69
2023/09/06 01:17:06;;;;;;;;;;;;;;;-140.72;100.00;52455.78;5074348;28;19974;-69
2023/09/06 01:19:32;;;;;;;;;;;;;;;-140.72;100.00;52435.50;5066550;28;19924;-69
2023/09/06 01:22:03;;;;;;;;;;;;;;;-140.72;100.00;52447.69;5063997;28;19988;-69
2023/09/06 01:24:29;;;;;;;;;;;;;;;-140.72;100.00;52396.94;5064001;28;19925;-68
2023/09/06 01:27:00;;;;;;;;;;;;;;;-140.72;100.00;52405.06;5075166;28;19920;-68
2023/09/06 01:29:25;;;;;;;;;;;;;;;-140.72;100.00;52445.66;5066973;28;19973;-69
2023/09/06 01:31:50;;;;;;;;;;;;;;;-140.72;100.00;52427.38;5066534;28;20378;-69
2023/09/06 01:34:16;;;;;;;;;;;;;;;-140.72;100.00;52461.88;5067989;28;19921;-69
2023/09/06 01:36:41;;;;;;;;;;;;;;;-140.72;100.00;52439.56;5065993;28;19925;-68
2023/09/06 01:39:07;;;;;;;;;;;;;;;-140.72;100.00;52467.97;5064349;28;19920;-69
2023/09/06 01:41:32;;;;;;;;;;;;;;;-140.72;100.00;52478.13;5070175;28;19965;-69
2023/09/06 01:47:04;;;;;;;;;;;;;;;-140.72;100.00;52447.69;5057586;28;20013;-69
2023/09/06 01:49:29;;;;;;;;;;;;;;;-140.72;100.00;52419.28;5067340;28;19920;-69
2023/09/06 01:51:55;;;;;;;;;;;;;;;-140.72;100.00;52439.56;5071469;28;19920;-70
2023/09/06 01:54:20;;;;;;;;;;;;;;;-140.72;100.00;52500.44;5070645;28;20971;-69
2023/09/06 01:57:03;;;;;;;;;;;;;;;-140.72;100.00;52455.78;5071681;28;20010;-69
2023/09/06 01:59:52;;;;;;;;;;;;;;;-140.72;100.00;52467.97;5081235;28;20416;-69
2023/09/06 02:02:17;;;;;;;;;;;;;;;-140.72;100.00;52484.19;5073674;28;20301;-69
2023/09/06 02:04:45;;;;;;;;;;;;;;;-140.72;100.00;52465.94;5066757;28;19928;-69
2023/09/06 02:07:11;;;;;;;;;;;;;;;-140.72;100.00;52425.34;5065141;28;19930;-68
2023/09/06 02:09:36;;;;;;;;;;;;;;;-140.72;100.00;52429.41;5070923;28;20327;-69
2023/09/06 02:12:01;;;;;;;;;;;;;;;-140.72;100.00;52472.03;5073171;28;19928;-69
2023/09/06 02:14:32;;;;;;;;;;;;;;;-140.72;100.00;52476.09;5065916;28;19920;-69
2023/09/06 02:16:57;;;;;;;;;;;;;;;-140.72;100.00;52478.13;5075797;28;19921;-69
2023/09/06 02:19:30;;;;;;;;;;;;;;;-140.72;100.00;52443.63;5064413;28;19965;-69
2023/09/06 02:21:55;;;;;;;;;;;;;;;-140.72;100.00;52463.91;5067503;28;20026;-69
2023/09/06 02:24:24;;;;;;;;;;;;;;;-140.72;100.00;52467.97;5066998;28;20019;-69
2023/09/06 02:26:49;;;;;;;;;;;;;;;-140.72;100.00;52459.84;5069914;28;19921;-68
2023/09/06 02:29:15;;;;;;;;;;;;;;;-140.72;100.00;52467.97;5065129;28;19926;-71
2023/09/06 02:31:41;;;;;;;;;;;;;;;-140.72;100.00;52490.28;5070688;28;19920;-69
2023/09/06 02:34:06;;;;;;;;;;;;;;;-140.72;100.00;52484.19;5060203;28;19921;-69
2023/09/06 02:36:31;;;;;;;;;;;;;;;-140.72;100.00;52463.91;5064789;28;19920;-69
2023/09/06 02:38:57;;;;;;;;;;;;;;;-140.72;100.00;52486.22;5066126;28;19927;-68
2023/09/06 02:41:22;;;;;;;;;;;;;;;-140.72;100.00;52459.84;5074961;28;19920;-69
2023/09/06 02:43:48;;;;;;;;;;;;;;;-140.72;100.00;52439.56;5067695;28;19924;-69
2023/09/06 02:46:15;;;;;;;;;;;;;;;-140.72;100.00;52449.72;5069901;28;20322;-68
2023/09/06 02:48:41;;;;;;;;;;;;;;;-140.72;100.00;52474.06;5064194;28;19931;-68
2023/09/06 02:51:08;;;;;;;;;;;;;;;-140.72;100.00;52490.28;5061049;28;19920;-68
2023/09/06 02:53:33;;;;;;;;;;;;;;;-140.72;100.00;52467.97;5063554;28;19920;-69
2023/09/06 02:55:59;;;;;;;;;;;;;;;-140.72;100.00;52476.09;5062547;28;19928;-69
2023/09/06 02:58:24;;;;;;;;;;;;;;;-140.72;100.00;52480.16;5071723;28;19973;-68
2023/09/06 03:00:57;;;;;;;;;;;;;;;-140.72;100.00;52463.91;5067717;28;19967;-69
2023/09/06 03:03:23;;;;;;;;;;;;;;;-140.72;100.00;52490.28;5063694;28;19956;-69
2023/09/06 03:05:48;;;;;;;;;;;;;;;-140.72;100.00;52526.81;5071861;28;19921;-69
2023/09/06 03:08:13;;;;;;;;;;;;;;;-140.72;100.00;52451.72;5074091;28;19921;-69
2023/09/06 03:10:44;;;;;;;;;;;;;;;-140.72;100.00;52496.38;5071178;28;19954;-69
2023/09/06 03:13:10;;;;;;;;;;;;;;;-140.72;100.00;52461.88;5073159;28;19943;-69
2023/09/06 03:15:35;;;;;;;;;;;;;;;-140.72;100.00;52488.25;5067392;28;20376;-69
2023/09/06 03:18:02;;;;;;;;;;;;;;;-140.72;100.00;52498.41;5071333;28;19921;-69
2023/09/06 03:20:43;;;;;;;;;;;;;;;-140.72;100.00;52518.69;5065049;28;19963;-69
2023/09/06 03:23:17;;;;;;;;;;;;;;;-140.72;100.00;52510.59;5078246;28;19958;-69
2023/09/06 03:26:00;;;;;;;;;;;;;;;-140.72;100.00;52516.66;5071185;28;20374;-70
2023/09/06 03:28:25;;;;;;;;;;;;;;;-140.72;100.00;52490.28;5067998;28;19951;-69
2023/09/06 03:30:54;;;;;;;;;;;;;;;-140.72;100.00;52502.47;5072587;28;20418;-69
2023/09/06 03:33:19;;;;;;;;;;;;;;;-140.72;100.00;52518.69;5074195;28;19929;-68
2023/09/06 03:35:48;;;;;;;;;;;;;;;-140.72;100.00;52467.97;5074786;28;19924;-67
2023/09/06 03:38:17;;;;;;;;;;;;;;;-140.72;100.00;52512.59;5067191;28;19920;-69
2023/09/06 03:40:43;;;;;;;;;;;;;;;-140.72;100.00;52502.47;5075837;28;19925;-69
2023/09/06 03:43:14;;;;;;;;;;;;;;;-140.72;100.00;52504.50;5064476;28;20371;-69
2023/09/06 03:45:42;;;;;;;;;;;;;;;-140.72;100.00;52494.34;5071871;28;20301;-68
2023/09/06 03:48:08;;;;;;;;;;;;;;;-140.72;100.00;52498.41;5073041;28;20321;-70
2023/09/06 03:50:34;;;;;;;;;;;;;;;-140.72;100.00;52520.72;5073052;28;19921;-68
2023/09/06 03:52:59;;;;;;;;;;;;;;;-140.72;100.00;52496.38;5072310;28;19967;-69
2023/09/06 03:55:28;;;;;;;;;;;;;;;-140.72;100.00;52492.31;5067391;28;19929;-68
2023/09/06 03:57:54;;;;;;;;;;;;;;;-140.72;100.00;52532.91;5077746;28;19920;-69
2023/09/06 04:00:31;;;;;;;;;;;;;;;-140.72;100.00;52484.19;5074140;28;20336;-69
2023/09/06 04:03:03;;;;;;;;;;;;;;;-140.72;100.00;52506.53;5073630;28;19927;-69
2023/09/06 04:05:29;;;;;;;;;;;;;;;-140.72;100.00;52500.44;5072130;28;20325;-69
2023/09/06 04:07:58;;;;;;;;;;;;;;;-140.72;100.00;52541.03;5072677;28;19920;-69
2023/09/06 04:10:38;;;;;;;;;;;;;;;-140.72;100.00;52528.84;5073116;28;19995;-68
2023/09/06 04:13:07;;;;;;;;;;;;;;;-140.72;100.00;52522.75;5070228;28;20341;-69
2023/09/06 04:15:35;;;;;;;;;;;;;;;-140.72;100.00;52506.53;5072244;28;19920;-68
2023/09/06 04:18:11;;;;;;;;;;;;;;;-140.72;100.00;52512.59;5068638;28;19925;-69
2023/09/06 04:20:37;;;;;;;;;;;;;;;-140.72;100.00;52526.81;5072340;28;19920;-70
2023/09/06 04:23:06;;;;;;;;;;;;;;;-140.72;100.00;52543.03;5080262;28;19927;-69
2023/09/06 04:25:33;;;;;;;;;;;;;;;-140.72;100.00;52500.44;5065719;28;19928;-68
2023/09/06 04:27:59;;;;;;;;;;;;;;;-140.72;100.00;52496.38;5072859;28;19974;-70
2023/09/06 04:30:28;;;;;;;;;;;;;;;-140.72;100.00;52539.00;5076482;28;19921;-70
2023/09/06 04:32:53;;;;;;;;;;;;;;;-140.72;100.00;52541.03;5072630;28;20025;-69
2023/09/06 04:35:18;;;;;;;;;;;;;;;-140.72;100.00;52536.97;5067046;28;19976;-69
2023/09/06 04:37:57;;;;;;;;;;;;;;;-140.72;100.00;52539.00;5073665;28;19928;-72
2023/09/06 04:40:22;;;;;;;;;;;;;;;-140.72;100.00;52526.81;5074057;28;19925;-70
2023/09/06 04:42:48;;;;;;;;;;;;;;;-140.72;100.00;52498.41;5067886;28;20326;-70
2023/09/06 04:45:13;;;;;;;;;;;;;;;-140.72;100.00;52528.84;5071265;28;19921;-70
2023/09/06 04:47:43;;;;;;;;;;;;;;;-140.72;100.00;52510.59;5067419;28;20278;-70
2023/09/06 04:50:09;;;;;;;;;;;;;;;-140.72;100.00;52526.81;5072596;28;19920;-74
2023/09/06 04:52:42;;;;;;;;;;;;;;;-140.72;100.00;52496.38;5074647;28;19970;-70
2023/09/06 04:55:08;;;;;;;;;;;;;;;-140.72;100.00;52496.38;5068626;28;20038;-71
2023/09/06 04:57:34;;;;;;;;;;;;;;;-140.72;100.00;52541.03;5073636;28;20008;-71
2023/09/06 05:00:00;;;;;;;;;;;;;;;-140.72;100.00;52500.44;5071723;28;20007;-69
2023/09/06 05:02:25;;;;;;;;;;;;;;;-140.72;100.00;52541.03;5072872;28;20362;-69
2023/09/06 05:04:50;;;;;;;;;;;;;;;-140.72;100.00;52534.94;5071056;28;19920;-70
2023/09/06 05:07:17;;;;;;;;;;;;;;;-140.72;100.00;52528.84;5072976;28;19927;-69
2023/09/06 05:09:43;;;;;;;;;;;;;;;-140.72;100.00;52545.06;5064083;28;19921;-72
2023/09/06 05:12:09;;;;;;;;;;;;;;;-140.72;100.00;52502.47;5080422;28;20000;-71
2023/09/06 05:14:39;;;;;;;;;;;;;;;-140.72;100.00;52547.09;5065883;28;20007;-72
2023/09/06 05:17:04;;;;;;;;;;;;;;;-140.72;100.00;52514.63;5070821;28;19921;-71
2023/09/06 05:19:29;;;;;;;;;;;;;;;-140.72;100.00;52530.88;5072305;28;19969;-72
2023/09/06 05:21:55;;;;;;;;;;;;;;;-140.72;100.00;52530.88;5083539;28;20239;-71
2023/09/06 05:24:20;;;;;;;;;;;;;;;-140.72;100.00;52506.53;5073146;28;19921;-70
2023/09/06 05:26:45;;;;;;;;;;;;;;;-140.72;100.00;52526.81;5065903;28;20011;-71
2023/09/06 05:29:11;;;;;;;;;;;;;;;-140.72;100.00;52539.00;5071740;28;19920;-71
2023/09/06 05:31:36;;;;;;;;;;;;;;;-140.72;100.00;52506.53;5074950;28;19933;-71
2023/09/06 05:34:01;;;;;;;;;;;;;;;-140.72;100.00;52512.59;5078059;28;19952;-71
2023/09/06 05:36:26;;;;;;;;;;;;;;;-140.72;100.00;52502.47;5068505;28;19921;-71
2023/09/06 05:38:52;;;;;;;;;;;;;;;-140.72;100.00;52522.75;5069286;28;19920;-71
2023/09/06 05:41:17;;;;;;;;;;;;;;;-140.72;100.00;52528.84;5066842;28;19931;-70
2023/09/06 05:43:42;;;;;;;;;;;;;;;-140.72;100.00;52472.03;5068948;28;19974;-72
2023/09/06 05:46:07;;;;;;;;;;;;;;;-140.72;100.00;52512.59;5068519;28;19924;-73
2023/09/06 05:48:32;;;;;;;;;;;;;;;-140.72;100.00;52504.50;5076613;28;19928;-70
2023/09/06 05:50:58;;;;;;;;;;;;;;;-140.72;100.00;52494.34;5070717;28;20288;-69
2023/09/06 05:53:24;;;;;;;;;;;;;;;-140.72;100.00;52534.94;5072282;28;19928;-70
2023/09/06 05:55:49;;;;;;;;;;;;;;;-140.72;100.00;52518.69;5070478;28;19928;-69
2023/09/06 05:58:37;;;;;;;;;;;;;;;-140.72;100.00;52516.66;5059796;28;20287;-72
2023/09/06 06:01:03;;;;;;;;;;;;;;;-140.72;100.00;52506.53;5066273;28;20057;-70
2023/09/06 06:03:29;;;;;;;;;;;;;;;-140.72;100.00;52488.25;5067272;28;19978;-70
2023/09/06 06:05:55;;;;;;;;;;;;;;;-140.72;100.00;52528.84;5066967;28;19946;-70
2023/09/06 06:08:20;;;;;;;;;;;;;;;-140.72;100.00;52541.03;5072388;28;19927;-70
2023/09/06 06:10:45;;;;;;;;;;;;;;;-140.72;100.00;52512.59;5077626;28;19931;-70
2023/09/06 06:13:12;;;;;;;;;;;;;;;-140.72;100.00;52504.50;5065208;28;20298;-68
2023/09/06 06:15:37;;;;;;;;;;;;;;;-140.72;100.00;52524.78;5066805;28;20337;-67
2023/09/06 06:18:10;;;;;;;;;;;;;;;-140.72;100.00;52500.44;5070623;28;19921;-69
2023/09/06 06:20:36;;;;;;;;;;;;;;;-140.72;100.00;52492.31;5072816;28;20408;-69
2023/09/06 06:23:01;;;;;;;;;;;;;;;-140.72;100.00;52547.09;5068510;28;20416;-69
2023/09/06 06:25:26;;;;;;;;;;;;;;;-140.72;100.00;52492.31;5069666;28;19932;-69
2023/09/06 06:27:51;;;;;;;;;;;;;;;-140.72;100.00;52557.25;5067003;28;19927;-69
2023/09/06 06:30:18;;;;;;;;;;;;;;;-140.72;100.00;52482.16;5069364;28;20385;-69
2023/09/06 06:32:43;;;;;;;;;;;;;;;-140.72;100.00;52514.63;5071300;28;19921;-70
2023/09/06 06:35:11;;;;;;;;;;;;;;;-140.72;100.00;52512.59;5067004;28;20019;-82
2023/09/06 06:37:36;;;;;;;;;;;;;;;-140.72;100.00;52482.16;5071833;28;20353;-77
2023/09/06 06:40:01;;;;;;;;;;;;;;;-140.72;100.00;52506.53;5068095;28;19960;-77
2023/09/06 06:42:30;;;;;;;;;;;;;;;-140.72;100.00;52504.50;5072862;28;20010;-77
2023/09/06 06:44:55;;;;;;;;;;;;;;;-140.72;100.00;52502.47;5072911;28;19927;-78
2023/09/06 06:47:20;;;;;;;;;;;;;;;-140.72;100.00;52455.78;5067767;28;19921;-79
2023/09/06 06:49:45;;;;;;;;;;;;;;;-140.72;100.00;52476.09;5072598;28;19927;-78
2023/09/06 06:52:20;;;;;;;;;;;;;;;-140.72;100.00;52461.88;5076259;28;20021;-77
2023/09/06 06:54:48;;;;;;;;;;;;;;;-140.72;100.00;52467.97;5074914;28;19920;-77
2023/09/06 06:57:13;;;;;;;;;;;;;;;-140.72;100.00;52431.44;5074930;28;19963;-77
2023/09/06 06:59:38;;;;;;;;;;;;;;;-140.72;100.00;52496.38;5076023;28;19924;-78
2023/09/06 07:02:30;;;;;;;;;;;;;;;-140.72;100.00;52472.03;5079601;28;19977;-77
2023/09/06 07:04:57;;;;;;;;;;;;;;;-140.72;100.00;52474.06;5084686;28;19952;-78
2023/09/06 07:07:29;;;;;;;;;;;;;;;-140.72;100.00;52457.81;5076200;28;20005;-77
2023/09/06 07:09:55;;;;;;;;;;;;;;;-140.72;100.00;52484.19;5074695;28;19956;-77
2023/09/06 07:12:20;;;;;;;;;;;;;;;-140.72;100.00;52467.97;5070506;28;19967;-78
2023/09/06 07:14:45;;;;;;;;;;;;;;;-140.72;100.00;52451.72;5078981;28;19975;-76
2023/09/06 07:17:10;;;;;;;;;;;;;;;-140.72;100.00;52439.56;5072379;28;19920;-77
2023/09/06 07:19:45;;;;;;;;;;;;;;;-140.72;100.00;52494.34;5059338;28;19939;-75
2023/09/06 07:22:10;;;;;;;;;;;;;;;-140.72;100.00;52437.53;5070569;28;19928;-74
2023/09/06 07:24:35;;;;;;;;;;;;;;;-140.72;100.00;52480.16;5070177;28;19920;-75
2023/09/06 07:27:01;;;;;;;;;;;;;;;-140.72;100.00;52453.75;5071344;28;19999;-72
2023/09/06 07:29:27;;;;;;;;;;;;;;;-140.72;100.00;52429.41;5071889;28;19921;-74
2023/09/06 07:34:47;;;;;;;;;;;;;;;-140.72;100.00;52470.00;5072334;28;19917;-72
2023/09/06 07:37:31;;;;;;;;;;;;;;;-140.72;100.00;52461.88;5075110;28;20006;-75
2023/09/06 07:39:57;;;;;;;;;;;;;;;-140.72;100.00;52425.34;5066286;28;20027;-74
2023/09/06 07:42:23;;;;;;;;;;;;;;;-140.72;100.00;52447.69;5067016;28;19927;-72
2023/09/06 07:45:08;;;;;;;;;;;;;;;-140.72;100.00;52398.97;5072814;28;19917;-73
2023/09/06 07:47:34;;;;;;;;;;;;;;;-140.72;100.00;52474.06;5075614;28;19939;-73
2023/09/06 07:49:59;;;;;;;;;;;;;;;-140.72;100.00;52435.50;5064994;28;19931;-75
2023/09/06 07:52:24;;;;;;;;;;;;;;;-140.72;100.00;52398.97;5072387;28;20015;-73
2023/09/06 07:54:49;;;;;;;;;;;;;;;-140.72;100.00;52413.19;5070093;28;19921;-74
2023/09/06 07:57:15;;;;;;;;;;;;;;;-140.72;100.00;52427.38;5065289;28;19928;-73
2023/09/06 07:59:40;;;;;;;;;;;;;;;-140.72;100.00;52390.84;5066875;28;19920;-72
2023/09/06 08:02:05;;;;;;;;;;;;;;;-140.72;100.00;52415.22;5064938;28;20024;-75
2023/09/06 08:04:30;;;;;;;;;;;;;;;-140.72;100.00;52407.09;5073018;28;19920;-76
2023/09/06 08:06:56;;;;;;;;;;;;;;;-140.72;100.00;52390.84;5077948;28;19924;-78
2023/09/06 08:09:21;;;;;;;;;;;;;;;-140.72;100.00;52405.06;5073644;28;19971;-75
2023/09/06 08:11:46;;;;;;;;;;;;;;;-140.72;100.00;52376.66;5071977;28;19916;-78
2023/09/06 08:14:12;;;;;;;;;;;;;;;-140.72;100.00;52390.84;5070046;28;19928;-72
2023/09/06 08:16:38;;;;;;;;;;;;;;;-140.72;100.00;52398.97;5068151;28;19920;-72
2023/09/06 08:19:26;;;;;;;;;;;;;;;-140.72;100.00;52407.09;5082041;28;19927;-72
2023/09/06 08:21:51;;;;;;;;;;;;;;;-140.72;100.00;52364.47;5077142;28;19956;-72
2023/09/06 08:24:17;;;;;;;;;;;;;;;-140.72;100.00;52352.31;5070289;28;19990;-73
2023/09/06 08:26:43;;;;;;;;;;;;;;;-140.72;100.00;52354.34;5064066;28;19970;-72
2023/09/06 08:29:08;;;;;;;;;;;;;;;-140.72;100.00;52350.28;5076383;28;19924;-73
2023/09/06 08:31:33;;;;;;;;;;;;;;;-140.72;100.00;52362.44;5074179;28;20742;-72
2023/09/06 08:33:59;;;;;;;;;;;;;;;-140.72;100.00;52309.69;5065828;28;20015;-72
2023/09/06 08:36:24;;;;;;;;;;;;;;;-140.72;100.00;52344.19;5065682;28;19921;-72
2023/09/06 08:38:49;;;;;;;;;;;;;;;-140.72;100.00;52313.75;5084593;28;19981;-72
2023/09/06 08:41:15;;;;;;;;;;;;;;;-140.72;100.00;52327.97;5073324;28;19928;-72
2023/09/06 08:43:43;;;;;;;;;;;;;;;-140.72;100.00;52311.72;5070645;28;19967;-71
2023/09/06 08:46:14;;;;;;;;;;;;;;;-140.72;100.00;52271.16;5074035;28;20362;-71
2023/09/06 08:48:41;;;;;;;;;;;;;;;-140.72;100.00;52267.09;5076627;28;20388;-72
2023/09/06 08:51:06;;;;;;;;;;;;;;;-140.72;100.00;52301.59;5071933;28;19934;-72
2023/09/06 08:53:33;;;;;;;;;;;;;;;-140.72;100.00;52263.03;5068040;28;20292;-73
2023/09/06 08:56:00;;;;;;;;;;;;;;;-140.72;100.00;52246.78;5070902;28;20025;-72
2023/09/06 08:58:26;;;;;;;;;;;;;;;-140.72;100.00;52254.91;5069569;28;20309;-72
2023/09/06 09:00:52;;;;;;;;;;;;;;;-140.72;100.00;52214.34;5068257;28;19967;-73
2023/09/06 09:03:17;;;;;;;;;;;;;;;-140.72;100.00;52192.00;5071940;28;20365;-71
2023/09/06 09:05:42;;;;;;;;;;;;;;;-140.72;100.00;52149.41;5070905;28;19921;-72
2023/09/06 09:08:09;;;;;;;;;;;;;;;-140.72;100.00;52102.75;5073738;28;19920;-72
2023/09/06 09:10:35;;;;;;;;;;;;;;;-140.72;100.00;52118.97;5060783;28;20286;-71
2023/09/06 09:13:00;;;;;;;;;;;;;;;-140.72;100.00;52074.34;5072346;28;19929;-72
2023/09/06 09:15:26;;;;;;;;;;;;;;;-140.72;52.48;52112.88;5078880;28;19970;-72
2023/09/06 09:17:51;;;;;;;;;;;;;;;-140.72;12.75;52060.13;5070312;28;20007;-71
2023/09/06 09:20:18;;;;;;;;;;;;;;;-140.72;0.00;52098.69;5081023;28;20266;-72
2023/09/06 09:22:44;;;;;;;;;;;;;;;-140.72;0.00;52047.97;5069929;28;19963;-72
2023/09/06 09:25:15;;;;;;;;;;;;;;;-140.72;0.00;52009.41;5070744;28;20350;-73
2023/09/06 09:27:51;;;;;;;;;;;;;;;-140.72;0.00;52001.28;5072163;28;19921;-72
2023/09/06 09:30:16;;;;;;;;;;;;;;;-140.72;0.00;52001.28;5062602;28;19940;-73
2023/09/06 09:32:42;;;;;;;;;;;;;;;-140.72;0.00;51964.78;5061515;28;19917;-71
2023/09/06 09:35:10;;;;;;;;;;;;;;;-140.72;0.00;51978.97;5076122;28;19920;-72
2023/09/06 09:37:35;;;;;;;;;;;;;;;-140.72;0.00;52001.28;5067673;28;20026;-72
2023/09/06 09:40:16;;;;;;;;;;;;;;;-140.72;0.00;51987.09;5061354;28;20007;-72
2023/09/06 09:42:52;;;;;;;;;;;;;;;-140.72;0.00;52007.38;5058481;28;19924;-72
2023/09/06 09:45:17;;;;;;;;;;;;;;;-140.72;0.00;51987.09;5054005;28;19916;-72
2023/09/06 09:47:42;;;;;;;;;;;;;;;-140.72;0.00;51962.75;5063298;28;20473;-71
2023/09/06 09:50:09;;;;;;;;;;;;;;;-140.72;0.00;51920.13;5065765;28;20439;-71
2023/09/06 09:52:34;;;;;;;;;;;;;;;-140.72;0.00;51934.34;5070005;28;19920;-72
2023/09/06 09:55:02;;;;;;;;;;;;;;;-140.72;0.00;51916.06;5067048;28;20016;-72
2023/09/06 09:57:28;;;;;;;;;;;;;;;-140.72;0.00;51932.31;5078856;28;19971;-75
2023/09/06 09:59:54;;;;;;;;;;;;;;;-140.72;0.00;51883.63;5079008;28;19923;-73
2023/09/06 10:02:21;;;;;;;;;;;;;;;-140.72;0.00;51895.78;5097944;28;20476;-71
2023/09/06 10:04:47;;;;;;;;;;;;;;;-140.72;0.00;51812.59;5073666;28;19916;-72
2023/09/06 10:07:14;;;;;;;;;;;;;;;-140.72;0.00;51800.44;5072801;28;19921;-71
2023/09/06 10:09:39;;;;;;;;;;;;;;;-140.72;0.00;51804.50;5070393;28;19939;-72
2023/09/06 10:12:09;;;;;;;;;;;;;;;-140.72;0.00;51792.31;5067155;28;19932;-72
2023/09/06 10:14:38;;;;;;;;;;;;;;;-140.72;0.00;51806.53;5060006;28;19963;-72
2023/09/06 10:17:04;;;;;;;;;;;;;;;-140.72;0.00;51802.47;5066617;28;19928;-72
2023/09/06 10:19:30;;;;;;;;;;;;;;;-140.72;0.00;51794.34;5075003;28;20043;-73
2023/09/06 10:21:55;;;;;;;;;;;;;;;-140.72;0.00;51822.75;5072666;28;19959;-72
2023/09/06 10:24:22;;;;;;;;;;;;;;;-140.72;0.00;51778.13;5071887;28;19928;-72
2023/09/06 10:26:47;;;;;;;;;;;;;;;-140.72;0.00;51778.13;5066354;28;20035;-71
2023/09/06 10:29:17;;;;;;;;;;;;;;;-140.72;0.00;51780.16;5070153;28;19988;-77
2023/09/06 10:31:45;;;;;;;;;;;;;;;-140.72;0.00;51729.44;5068870;28;20035;-72
2023/09/06 10:34:12;;;;;;;;;;;;;;;-140.72;0.00;51699.00;5068358;28;19928;-72
2023/09/06 10:36:57;;;;;;;;;;;;;;;-140.72;0.00;51701.03;5069521;28;20029;-71
2023/09/06 10:39:25;;;;;;;;;;;;;;;-140.72;0.00;51682.75;5066692;28;19927;-72
2023/09/06 10:42:09;;;;;;;;;;;;;;;-140.72;0.00;51688.84;5073568;28;19920;-72
2023/09/06 10:45:00;;;;;;;;;;;;;;;-140.72;0.00;51656.38;5073599;28;19921;-72
2023/09/06 10:47:27;;;;;;;;;;;;;;;-140.72;0.00;51690.88;5070304;28;19921;-72
2023/09/06 10:50:15;;;;;;;;;;;;;;;-140.72;0.00;51644.22;5071493;28;19927;-78
2023/09/06 10:52:51;;;;;;;;;;;;;;;-140.72;0.00;51628.00;5076006;28;20334;-77
2023/09/06 10:55:21;;;;;;;;;;;;;;;-140.72;0.00;51577.28;5072204;28;19917;-75
2023/09/06 10:57:48;;;;;;;;;;;;;;;-140.72;0.00;51575.25;5072276;28;19936;-75
2023/09/06 11:00:21;;;;;;;;;;;;;;;-140.72;0.00;51579.28;5071589;28;19952;-73
2023/09/06 11:05:39;;;;;;;;;;;;;;;-140.72;0.00;51518.44;5073705;28;19920;-79
2023/09/06 11:08:05;;;;;;;;;;;;;;;-140.72;0.00;51526.56;5069848;28;19924;-80
2023/09/06 11:10:31;;;;;;;;;;;;;;;-140.72;0.00;51565.09;5070200;28;20014;-81
2023/09/06 11:13:20;;;;;;;;;;;;;;;-140.72;0.00;51526.56;5070136;28;19959;-76
2023/09/06 11:15:48;;;;;;;;;;;;;;;-140.72;0.00;51492.06;5084600;28;19916;-78
2023/09/06 11:18:14;;;;;;;;;;;;;;;-140.72;0.00;51518.44;5063651;28;19926;-78
2023/09/06 11:20:46;;;;;;;;;;;;;;;-140.72;0.00;51534.66;5070993;28;20897;-78
2023/09/06 11:23:12;;;;;;;;;;;;;;;-140.72;0.00;51461.63;5076309;28;19916;-78
2023/09/06 11:25:38;;;;;;;;;;;;;;;-140.72;0.00;51481.91;5071097;28;19946;-79
2023/09/06 11:28:14;;;;;;;;;;;;;;;-140.72;0.00;51443.38;5073876;28;19920;-77
2023/09/06 11:30:39;;;;;;;;;;;;;;;-140.72;0.00;51479.91;5068679;28;20309;-78
2023/09/06 11:33:07;;;;;;;;;;;;;;;-140.72;0.00;51435.25;5071700;28;19927;-77
2023/09/06 11:35:35;;;;;;;;;;;;;;;-140.72;0.00;51386.56;5078593;28;19938;-75
2023/09/06 11:38:00;;;;;;;;;;;;;;;-140.72;0.00;51414.97;5073701;28;19971;-75
2023/09/06 11:40:28;;;;;;;;;;;;;;;-140.72;0.00;51358.19;5068744;28;20009;-75
2023/09/06 11:42:56;;;;;;;;;;;;;;;-140.72;0.00;51360.22;5071646;28;19923;-75
2023/09/06 11:45:21;;;;;;;;;;;;;;;-140.72;0.00;51388.59;5074438;28;19920;-77
2023/09/06 11:47:47;;;;;;;;;;;;;;;-140.72;0.00;51321.66;5069057;28;19924;-74
2023/09/06 11:50:19;;;;;;;;;;;;;;;-140.72;0.00;51323.69;5081136;28;19971;-74
2023/09/06 11:52:46;;;;;;;;;;;;;;;-140.72;0.00;51295.28;5074508;28;19927;-74
2023/09/06 11:55:14;;;;;;;;;;;;;;;-140.72;0.00;51309.50;5073453;28;19920;-74
2023/09/06 11:57:41;;;;;;;;;;;;;;;-140.72;0.00;51285.16;5066977;28;19951;-75
2023/09/06 12:00:17;;;;;;;;;;;;;;;-140.72;0.00;51285.16;5077951;28;20369;-76
2023/09/06 12:02:43;;;;;;;;;;;;;;;-140.72;0.00;51307.47;5081315;28;20007;-75
2023/09/06 12:05:11;;;;;;;;;;;;;;;-140.72;0.00;51297.31;5076847;28;19994;-77
2023/09/06 12:07:36;;;;;;;;;;;;;;;-140.72;0.00;51309.50;5063178;28;19928;-75
2023/09/06 12:10:04;;;;;;;;;;;;;;;-140.72;0.00;51254.72;5068511;28;20478;-77
2023/09/06 12:12:39;;;;;;;;;;;;;;;-140.72;0.00;51256.75;5073792;28;20341;-76
2023/09/06 12:15:04;;;;;;;;;;;;;;;-140.72;0.00;51329.78;5063015;28;20341;-78
2023/09/06 12:17:31;;;;;;;;;;;;;;;-140.72;0.00;51313.53;5075635;28;19928;-75
2023/09/06 12:19:59;;;;;;;;;;;;;;;-140.72;0.00;51246.59;5075001;28;19924;-75
2023/09/06 12:22:25;;;;;;;;;;;;;;;-140.72;0.00;51299.34;5075674;28;20413;-75
2023/09/06 12:24:51;;;;;;;;;;;;;;;-140.72;0.00;51303.41;5073115;28;19924;-76
2023/09/06 12:27:20;;;;;;;;;;;;;;;-140.72;0.00;51226.31;5066905;28;20335;-77
2023/09/06 12:29:45;;;;;;;;;;;;;;;-140.72;0.00;51214.16;5067174;28;19924;-76
2023/09/06 12:32:10;;;;;;;;;;;;;;;-140.72;0.00;51161.41;5073405;28;20337;-77
2023/09/06 12:34:36;;;;;;;;;;;;;;;-140.72;0.00;51163.44;5074702;28;20054;-75